Bell Ville, Argentina
Current Conditions -  °F | °C
As of 11:00 AM on Monday 24 Nov 2014 (Local Time) from SAOC Reporting Station
Scattered Clouds Scattered Clouds  
Wind Chill: 66°   Ceiling: Unl
Heat Index: 66°   Visibility: 6mi
Dew Point: 55°   Wind: 22mph
Humidity: 68%   Direction: 180°S
Pressure: 29.94"   Gusts: NA
Location:  32.62°S, 62.7°W
Report Text: SAOC 241400Z 18019KT 9999 SCT030 SCT05019/13 Q1014
Loading
Personal Weather Stations






























Interactive Weather Map New forecast layout! Learn more

10-Day Weather Forecast

Advertisements
Track Severe Weather on mobile